»·PEaware :: DAL213 KDEN-KASE

DAL213 :: KDEN-KASE

FLIGHT INFORMATION

Flight Status: Arrived
Operator:
Delta Air Lines
More flights by this operator :: More flights under this callsign
Pilot: Nicolas L. (9332)
Aircraft: BOEING 737-800
(B738)
More flights by this aircraft type
Origin: KDEN Denver Intl
United States
Destination: KASE Aspen-Pitkin Co/Sardy
United States
More flights between these airports :: More routes between these airports
Route: +CONNR4 BULDG DBL
File this flight plan on PilotEdge
Remarks: Live Streaming on Twith "DAL213" and YT
Altitude:
(Current/Filed)
22,000ft
Speed:
(Current/Filed)
400kts
Departed: 02-May-18 07:56 PM
Arrived: 02-May-18 08:22 PM
Distance/Time
Traveled:
109nm/0:26
Distance/Time
To Go:
Arrived

Flight Plot

Page will automatically refresh every two minutes.

Flight plan parsing failed; only flown route is shown


Map Options




Map Legend


Flown Route
Filed Route
Departure Airport
Arrival Airport
Navaid (VOR, NDB)
Fix

Horizontal Profiles

Position Reports

Time Latitude Longitude Heading Altitude Ground
Speed
02-May-18 19:28 39.853403 -104.675161 0 5439ft 0kts
02-May-18 19:29 39.853403 -104.675161 0 5439ft 0kts
02-May-18 19:30 39.853403 -104.675161 0 5439ft 0kts
02-May-18 19:31 39.853403 -104.675161 0 5439ft 0kts
02-May-18 19:32 39.853403 -104.675161 0 5439ft 0kts
02-May-18 19:33 39.853403 -104.675161 0 5439ft 0kts
02-May-18 19:34 39.853403 -104.675161 0 5439ft 0kts
02-May-18 19:35 39.853403 -104.675161 0 5439ft 0kts
02-May-18 19:36 39.853403 -104.675161 0 5439ft 0kts
02-May-18 19:37 39.853403 -104.675161 0 5439ft 0kts
02-May-18 19:38 39.853403 -104.675161 0 5439ft 0kts
02-May-18 19:39 39.853403 -104.675161 0 5439ft 0kts
02-May-18 19:40 39.853403 -104.675161 0 5439ft 0kts
02-May-18 19:41 39.853403 -104.675161 0 5439ft 0kts
02-May-18 19:42 39.853253 -104.675155 352 5439ft 2kts
02-May-18 19:43 39.852697 -104.674590 293 5439ft 0kts
02-May-18 19:44 39.852697 -104.674590 293 5439ft 0kts
02-May-18 19:45 39.852697 -104.674590 293 5439ft 0kts
02-May-18 19:46 39.852697 -104.674590 293 5439ft 0kts
02-May-18 19:47 39.852697 -104.674590 293 5439ft 0kts
02-May-18 19:48 39.852698 -104.674591 293 5439ft 0kts
02-May-18 19:49 39.852820 -104.676380 270 5439ft 12kts
02-May-18 19:50 39.852855 -104.681078 271 5439ft 11kts
02-May-18 19:51 39.850989 -104.684066 180 5439ft 17kts
02-May-18 19:52 39.845012 -104.684117 180 5439ft 17kts
02-May-18 19:53 39.841964 -104.684160 180 5439ft 0kts
02-May-18 19:54 39.841962 -104.684160 180 5439ft 0kts
02-May-18 19:55 39.840751 -104.697634 268 5440ft 133kts
02-May-18 19:56 39.841440 -104.763494 269 7472ft 216kts
02-May-18 19:57 39.839703 -104.853519 267 9863ft 277kts
02-May-18 19:58 39.838286 -104.968565 266 11619ft 335kts
02-May-18 19:59 39.822330 -105.085542 250 15163ft 332kts
02-May-18 20:00 39.796368 -105.203897 249 18146ft 347kts
02-May-18 20:01 39.769929 -105.328141 251 20031ft 368kts
02-May-18 20:02 39.742740 -105.456512 250 20078ft 369kts
02-May-18 20:03 39.715031 -105.585671 251 20109ft 371kts
02-May-18 20:04 39.692979 -105.717045 258 20140ft 375kts
02-May-18 20:05 39.678552 -105.851630 258 20144ft 376kts
02-May-18 20:06 39.663589 -105.985884 258 20132ft 376kts
02-May-18 20:07 39.648432 -106.120205 258 20127ft 377kts
02-May-18 20:08 39.633059 -106.255019 257 20078ft 373kts
02-May-18 20:09 39.606503 -106.374039 243 19555ft 318kts
02-May-18 20:11 39.573873 -106.477712 243 17996ft 306kts
02-May-18 20:12 39.541547 -106.578612 243 16220ft 299kts
02-May-18 20:13 39.510149 -106.676097 243 15086ft 285kts
02-May-18 20:14 39.479275 -106.773213 245 14268ft 291kts
02-May-18 20:15 39.448405 -106.866233 236 13217ft 271kts
02-May-18 20:16 39.383847 -106.889570 178 12022ft 242kts
02-May-18 20:17 39.321725 -106.884728 175 11204ft 210kts
02-May-18 20:18 39.268841 -106.874218 160 9817ft 160kts
02-May-18 20:19 39.230483 -106.848050 151 9092ft 156kts
02-May-18 20:20 39.195723 -106.838244 268 8430ft 153kts
02-May-18 20:21 39.223619 -106.869128 338 7745ft 73kts
02-May-18 20:22 39.228458 -106.870249 158 7745ft 9kts
02-May-18 20:23 39.226893 -106.869311 103 7745ft 5kts
02-May-18 20:24 39.226835 -106.869209 158 7745ft 0kts
02-May-18 20:25 39.226835 -106.869209 158 7745ft 0kts
02-May-18 20:26 39.226835 -106.869209 158 7745ft 0kts
02-May-18 20:27 39.226835 -106.869209 158 7745ft 0kts
02-May-18 20:28 39.226835 -106.869209 158 7745ft 0kts

Navigation Log

Ident Type
Flight plan parsing failed, navigation log unavailable